sensor_id;sensor_type;location;lat;lon;timestamp;temperature;humidity
19665;DHT22;9980;51.020;7.772;2023-02-03T00:01:59;10.40;99.90
19665;DHT22;9980;51.020;7.772;2023-02-03T00:04:25;10.40;99.90
19665;DHT22;9980;51.020;7.772;2023-02-03T00:06:51;10.40;99.90
19665;DHT22;9980;51.020;7.772;2023-02-03T00:09:18;10.40;99.90
19665;DHT22;9980;51.020;7.772;2023-02-03T00:11:45;10.40;99.90
19665;DHT22;9980;51.020;7.772;2023-02-03T00:14:12;10.40;99.90
19665;DHT22;9980;51.020;7.772;2023-02-03T00:16:38;10.40;99.90
19665;DHT22;9980;51.020;7.772;2023-02-03T00:19:04;10.40;99.90
19665;DHT22;9980;51.020;7.772;2023-02-03T00:21:30;10.40;99.90
19665;DHT22;9980;51.020;7.772;2023-02-03T00:23:56;10.40;99.90
19665;DHT22;9980;51.020;7.772;2023-02-03T00:26:23;10.40;99.90
19665;DHT22;9980;51.020;7.772;2023-02-03T00:28:50;10.40;99.90
19665;DHT22;9980;51.020;7.772;2023-02-03T00:31:22;10.40;99.90
19665;DHT22;9980;51.020;7.772;2023-02-03T00:33:54;10.40;99.90
19665;DHT22;9980;51.020;7.772;2023-02-03T00:36:22;10.40;99.90
19665;DHT22;9980;51.020;7.772;2023-02-03T00:38:49;10.40;99.90
19665;DHT22;9980;51.020;7.772;2023-02-03T00:41:16;10.40;99.90
19665;DHT22;9980;51.020;7.772;2023-02-03T00:43:42;10.40;99.90
19665;DHT22;9980;51.020;7.772;2023-02-03T00:46:09;10.40;99.90
19665;DHT22;9980;51.020;7.772;2023-02-03T00:48:35;10.40;99.90
19665;DHT22;9980;51.020;7.772;2023-02-03T00:51:01;10.40;99.90
19665;DHT22;9980;51.020;7.772;2023-02-03T00:53:28;10.40;99.90
19665;DHT22;9980;51.020;7.772;2023-02-03T00:55:54;10.40;99.90
19665;DHT22;9980;51.020;7.772;2023-02-03T00:58:21;10.40;99.90
19665;DHT22;9980;51.020;7.772;2023-02-03T01:00:47;10.40;99.90
19665;DHT22;9980;51.020;7.772;2023-02-03T01:03:13;10.40;99.90
19665;DHT22;9980;51.020;7.772;2023-02-03T01:05:41;10.40;99.90
19665;DHT22;9980;51.020;7.772;2023-02-03T01:08:07;10.40;99.90
19665;DHT22;9980;51.020;7.772;2023-02-03T01:10:33;10.40;99.90
19665;DHT22;9980;51.020;7.772;2023-02-03T01:13:02;10.40;99.90
19665;DHT22;9980;51.020;7.772;2023-02-03T01:15:29;10.40;99.90
19665;DHT22;9980;51.020;7.772;2023-02-03T01:17:56;10.40;99.90
19665;DHT22;9980;51.020;7.772;2023-02-03T01:20:22;10.40;99.90
19665;DHT22;9980;51.020;7.772;2023-02-03T01:22:49;10.50;99.90
19665;DHT22;9980;51.020;7.772;2023-02-03T01:25:15;10.40;99.90
19665;DHT22;9980;51.020;7.772;2023-02-03T01:27:42;10.40;99.90
19665;DHT22;9980;51.020;7.772;2023-02-03T01:30:09;10.40;99.90
19665;DHT22;9980;51.020;7.772;2023-02-03T01:32:35;10.40;99.90
19665;DHT22;9980;51.020;7.772;2023-02-03T01:35:03;10.40;99.90
19665;DHT22;9980;51.020;7.772;2023-02-03T01:37:30;10.50;99.90
19665;DHT22;9980;51.020;7.772;2023-02-03T01:39:56;10.40;99.90
19665;DHT22;9980;51.020;7.772;2023-02-03T01:42:22;10.50;99.90
19665;DHT22;9980;51.020;7.772;2023-02-03T01:44:50;10.40;99.90
19665;DHT22;9980;51.020;7.772;2023-02-03T01:47:27;10.50;99.90
19665;DHT22;9980;51.020;7.772;2023-02-03T01:52:28;10.50;99.90
19665;DHT22;9980;51.020;7.772;2023-02-03T01:54:58;10.50;99.90
19665;DHT22;9980;51.020;7.772;2023-02-03T01:57:35;10.50;99.90
19665;DHT22;9980;51.020;7.772;2023-02-03T02:00:06;10.40;99.90
19665;DHT22;9980;51.020;7.772;2023-02-03T02:02:42;10.50;99.90
19665;DHT22;9980;51.020;7.772;2023-02-03T02:05:21;10.50;99.90
19665;DHT22;9980;51.020;7.772;2023-02-03T02:07:50;10.50;99.90
19665;DHT22;9980;51.020;7.772;2023-02-03T02:10:16;10.50;99.90
19665;DHT22;9980;51.020;7.772;2023-02-03T02:12:43;10.50;99.90
19665;DHT22;9980;51.020;7.772;2023-02-03T02:15:09;10.50;99.90
19665;DHT22;9980;51.020;7.772;2023-02-03T02:18:04;10.50;99.90
19665;DHT22;9980;51.020;7.772;2023-02-03T02:23:47;10.50;99.90
19665;DHT22;9980;51.020;7.772;2023-02-03T02:32:47;10.50;99.90
19665;DHT22;9980;51.020;7.772;2023-02-03T02:41:15;10.50;99.90
19665;DHT22;9980;51.020;7.772;2023-02-03T02:43:49;10.50;99.90
19665;DHT22;9980;51.020;7.772;2023-02-03T02:46:42;10.50;99.90
19665;DHT22;9980;51.020;7.772;2023-02-03T02:52:04;10.50;99.90
19665;DHT22;9980;51.020;7.772;2023-02-03T02:54:36;10.50;99.90
19665;DHT22;9980;51.020;7.772;2023-02-03T02:57:09;10.50;99.90
19665;DHT22;9980;51.020;7.772;2023-02-03T02:59:37;10.50;99.90
19665;DHT22;9980;51.020;7.772;2023-02-03T03:02:04;10.50;99.90
19665;DHT22;9980;51.020;7.772;2023-02-03T03:04:33;10.50;99.90
19665;DHT22;9980;51.020;7.772;2023-02-03T03:07:03;10.50;99.90
19665;DHT22;9980;51.020;7.772;2023-02-03T03:09:51;10.50;99.90
19665;DHT22;9980;51.020;7.772;2023-02-03T03:12:23;10.50;99.90
19665;DHT22;9980;51.020;7.772;2023-02-03T03:15:10;10.50;99.90
19665;DHT22;9980;51.020;7.772;2023-02-03T03:17:47;10.50;99.90
19665;DHT22;9980;51.020;7.772;2023-02-03T03:20:23;10.50;99.90
19665;DHT22;9980;51.020;7.772;2023-02-03T03:22:58;10.50;99.90
19665;DHT22;9980;51.020;7.772;2023-02-03T03:25:33;10.50;99.90
19665;DHT22;9980;51.020;7.772;2023-02-03T03:28:13;10.50;99.90
19665;DHT22;9980;51.020;7.772;2023-02-03T03:30:43;10.50;99.90
19665;DHT22;9980;51.020;7.772;2023-02-03T03:33:10;10.50;99.90
19665;DHT22;9980;51.020;7.772;2023-02-03T03:36:04;10.50;99.90
19665;DHT22;9980;51.020;7.772;2023-02-03T03:44:38;10.40;99.90
19665;DHT22;9980;51.020;7.772;2023-02-03T03:47:52;10.50;99.90
19665;DHT22;9980;51.020;7.772;2023-02-03T03:50:28;10.50;99.90
19665;DHT22;9980;51.020;7.772;2023-02-03T03:53:00;10.50;99.90
19665;DHT22;9980;51.020;7.772;2023-02-03T03:55:30;10.50;99.90
19665;DHT22;9980;51.020;7.772;2023-02-03T03:58:23;10.50;99.90
19665;DHT22;9980;51.020;7.772;2023-02-03T04:00:57;10.50;99.90
19665;DHT22;9980;51.020;7.772;2023-02-03T04:03:39;10.50;99.90
19665;DHT22;9980;51.020;7.772;2023-02-03T04:06:09;10.50;99.90
19665;DHT22;9980;51.020;7.772;2023-02-03T04:08:37;10.50;99.90
19665;DHT22;9980;51.020;7.772;2023-02-03T04:11:05;10.50;99.90
19665;DHT22;9980;51.020;7.772;2023-02-03T04:13:31;10.50;99.90
19665;DHT22;9980;51.020;7.772;2023-02-03T04:15:57;10.50;99.90
19665;DHT22;9980;51.020;7.772;2023-02-03T04:18:24;10.50;99.90
19665;DHT22;9980;51.020;7.772;2023-02-03T04:20:50;10.50;99.90
19665;DHT22;9980;51.020;7.772;2023-02-03T04:23:16;10.50;99.90
19665;DHT22;9980;51.020;7.772;2023-02-03T04:25:42;10.50;99.90
19665;DHT22;9980;51.020;7.772;2023-02-03T04:28:09;10.50;99.90
19665;DHT22;9980;51.020;7.772;2023-02-03T04:30:35;10.50;99.90
19665;DHT22;9980;51.020;7.772;2023-02-03T04:33:01;10.50;99.90
19665;DHT22;9980;51.020;7.772;2023-02-03T04:35:28;10.50;99.90
19665;DHT22;9980;51.020;7.772;2023-02-03T04:37:54;10.50;99.90
19665;DHT22;9980;51.020;7.772;2023-02-03T04:40:20;10.50;99.90
19665;DHT22;9980;51.020;7.772;2023-02-03T04:42:46;10.50;99.90
19665;DHT22;9980;51.020;7.772;2023-02-03T04:45:12;10.50;99.90
19665;DHT22;9980;51.020;7.772;2023-02-03T04:47:39;10.50;99.90
19665;DHT22;9980;51.020;7.772;2023-02-03T04:50:05;10.50;99.90
19665;DHT22;9980;51.020;7.772;2023-02-03T04:52:32;10.50;99.90
19665;DHT22;9980;51.020;7.772;2023-02-03T04:54:58;10.50;99.90
19665;DHT22;9980;51.020;7.772;2023-02-03T04:57:24;10.50;99.90
19665;DHT22;9980;51.020;7.772;2023-02-03T04:59:51;10.50;99.90
19665;DHT22;9980;51.020;7.772;2023-02-03T05:02:17;10.50;99.90
19665;DHT22;9980;51.020;7.772;2023-02-03T05:04:43;10.50;99.90
19665;DHT22;9980;51.020;7.772;2023-02-03T05:07:10;10.50;99.90
19665;DHT22;9980;51.020;7.772;2023-02-03T05:09:36;10.50;99.90
19665;DHT22;9980;51.020;7.772;2023-02-03T05:12:02;10.50;99.90
19665;DHT22;9980;51.020;7.772;2023-02-03T05:14:29;10.50;99.90
19665;DHT22;9980;51.020;7.772;2023-02-03T05:16:55;10.50;99.90
19665;DHT22;9980;51.020;7.772;2023-02-03T05:19:21;10.50;99.90
19665;DHT22;9980;51.020;7.772;2023-02-03T05:21:47;10.50;99.90
19665;DHT22;9980;51.020;7.772;2023-02-03T05:24:13;10.50;99.90
19665;DHT22;9980;51.020;7.772;2023-02-03T05:26:40;10.50;99.90
19665;DHT22;9980;51.020;7.772;2023-02-03T05:29:06;10.50;99.90
19665;DHT22;9980;51.020;7.772;2023-02-03T05:31:32;10.50;99.90
19665;DHT22;9980;51.020;7.772;2023-02-03T05:33:59;10.50;99.90
19665;DHT22;9980;51.020;7.772;2023-02-03T05:36:25;10.50;99.90
19665;DHT22;9980;51.020;7.772;2023-02-03T05:38:52;10.50;99.90
19665;DHT22;9980;51.020;7.772;2023-02-03T05:41:18;10.50;99.90
19665;DHT22;9980;51.020;7.772;2023-02-03T05:44:03;10.50;99.90
19665;DHT22;9980;51.020;7.772;2023-02-03T05:46:29;10.50;99.90
19665;DHT22;9980;51.020;7.772;2023-02-03T05:48:55;10.50;99.90
19665;DHT22;9980;51.020;7.772;2023-02-03T05:51:22;10.50;99.90
19665;DHT22;9980;51.020;7.772;2023-02-03T05:53:49;10.50;99.90
19665;DHT22;9980;51.020;7.772;2023-02-03T05:56:16;10.50;99.90
19665;DHT22;9980;51.020;7.772;2023-02-03T05:58:42;10.50;99.90
19665;DHT22;9980;51.020;7.772;2023-02-03T06:01:08;10.50;99.90
19665;DHT22;9980;51.020;7.772;2023-02-03T06:03:36;10.50;99.90
19665;DHT22;9980;51.020;7.772;2023-02-03T06:06:02;10.50;99.90
19665;DHT22;9980;51.020;7.772;2023-02-03T06:08:29;10.50;99.90
19665;DHT22;9980;51.020;7.772;2023-02-03T06:10:58;10.50;99.90
19665;DHT22;9980;51.020;7.772;2023-02-03T06:13:25;10.50;99.90
19665;DHT22;9980;51.020;7.772;2023-02-03T06:15:52;10.50;99.90
19665;DHT22;9980;51.020;7.772;2023-02-03T06:18:19;10.50;99.90
19665;DHT22;9980;51.020;7.772;2023-02-03T06:20:46;10.50;99.90
19665;DHT22;9980;51.020;7.772;2023-02-03T06:23:12;10.50;99.90
19665;DHT22;9980;51.020;7.772;2023-02-03T06:25:39;10.50;99.90
19665;DHT22;9980;51.020;7.772;2023-02-03T06:28:05;10.50;99.90
19665;DHT22;9980;51.020;7.772;2023-02-03T06:30:31;10.50;99.90
19665;DHT22;9980;51.020;7.772;2023-02-03T06:32:57;10.50;99.90
19665;DHT22;9980;51.020;7.772;2023-02-03T06:35:24;10.50;99.90
19665;DHT22;9980;51.020;7.772;2023-02-03T06:37:50;10.50;99.90
19665;DHT22;9980;51.020;7.772;2023-02-03T06:40:16;10.50;99.90
19665;DHT22;9980;51.020;7.772;2023-02-03T06:42:47;10.50;99.90
19665;DHT22;9980;51.020;7.772;2023-02-03T06:45:13;10.50;99.90
19665;DHT22;9980;51.020;7.772;2023-02-03T06:47:41;10.50;99.90
19665;DHT22;9980;51.020;7.772;2023-02-03T06:50:10;10.50;99.90
19665;DHT22;9980;51.020;7.772;2023-02-03T06:52:38;10.50;99.90
19665;DHT22;9980;51.020;7.772;2023-02-03T06:55:05;10.50;99.90
19665;DHT22;9980;51.020;7.772;2023-02-03T06:57:32;10.50;99.90
19665;DHT22;9980;51.020;7.772;2023-02-03T06:59:58;10.50;99.90
19665;DHT22;9980;51.020;7.772;2023-02-03T07:02:25;10.50;99.90
19665;DHT22;9980;51.020;7.772;2023-02-03T07:04:51;10.50;99.90
19665;DHT22;9980;51.020;7.772;2023-02-03T07:07:17;10.50;99.90
19665;DHT22;9980;51.020;7.772;2023-02-03T07:09:43;10.50;99.90
19665;DHT22;9980;51.020;7.772;2023-02-03T07:12:10;10.50;99.90
19665;DHT22;9980;51.020;7.772;2023-02-03T07:14:36;10.50;99.90
19665;DHT22;9980;51.020;7.772;2023-02-03T07:17:04;10.50;99.90
19665;DHT22;9980;51.020;7.772;2023-02-03T07:19:31;10.50;99.90
19665;DHT22;9980;51.020;7.772;2023-02-03T07:21:57;10.50;99.90
19665;DHT22;9980;51.020;7.772;2023-02-03T07:24:24;10.50;99.90
19665;DHT22;9980;51.020;7.772;2023-02-03T07:26:50;10.50;99.90
19665;DHT22;9980;51.020;7.772;2023-02-03T07:29:18;10.50;99.90
19665;DHT22;9980;51.020;7.772;2023-02-03T07:31:44;10.50;99.90
19665;DHT22;9980;51.020;7.772;2023-02-03T07:34:10;10.50;99.90
19665;DHT22;9980;51.020;7.772;2023-02-03T07:36:36;10.50;99.90
19665;DHT22;9980;51.020;7.772;2023-02-03T07:39:03;10.50;99.90
19665;DHT22;9980;51.020;7.772;2023-02-03T07:41:29;10.50;99.90
19665;DHT22;9980;51.020;7.772;2023-02-03T07:43:56;10.50;99.90
19665;DHT22;9980;51.020;7.772;2023-02-03T07:46:22;10.50;99.90
19665;DHT22;9980;51.020;7.772;2023-02-03T07:48:48;10.50;99.90
19665;DHT22;9980;51.020;7.772;2023-02-03T07:51:14;10.50;99.90
19665;DHT22;9980;51.020;7.772;2023-02-03T07:53:41;10.50;99.90
19665;DHT22;9980;51.020;7.772;2023-02-03T07:56:07;10.50;99.90
19665;DHT22;9980;51.020;7.772;2023-02-03T07:58:34;10.50;99.90
19665;DHT22;9980;51.020;7.772;2023-02-03T08:01:00;10.50;99.90
19665;DHT22;9980;51.020;7.772;2023-02-03T08:03:26;10.50;99.90
19665;DHT22;9980;51.020;7.772;2023-02-03T08:05:52;10.50;99.90
19665;DHT22;9980;51.020;7.772;2023-02-03T08:08:19;10.50;99.90
19665;DHT22;9980;51.020;7.772;2023-02-03T08:10:45;10.50;99.90
19665;DHT22;9980;51.020;7.772;2023-02-03T08:13:12;10.50;99.90
19665;DHT22;9980;51.020;7.772;2023-02-03T08:15:38;10.50;99.90
19665;DHT22;9980;51.020;7.772;2023-02-03T08:18:04;10.50;99.90
19665;DHT22;9980;51.020;7.772;2023-02-03T08:20:34;10.50;99.90
19665;DHT22;9980;51.020;7.772;2023-02-03T08:23:00;10.50;99.90
19665;DHT22;9980;51.020;7.772;2023-02-03T08:25:27;10.50;99.90
19665;DHT22;9980;51.020;7.772;2023-02-03T08:27:53;10.50;99.90
19665;DHT22;9980;51.020;7.772;2023-02-03T08:30:19;10.60;99.90
19665;DHT22;9980;51.020;7.772;2023-02-03T08:32:46;10.50;99.90
19665;DHT22;9980;51.020;7.772;2023-02-03T08:35:13;10.50;99.90
19665;DHT22;9980;51.020;7.772;2023-02-03T08:37:39;10.50;99.90
19665;DHT22;9980;51.020;7.772;2023-02-03T08:40:07;10.60;99.90
19665;DHT22;9980;51.020;7.772;2023-02-03T08:42:38;10.50;99.90
19665;DHT22;9980;51.020;7.772;2023-02-03T08:45:05;10.50;99.90
19665;DHT22;9980;51.020;7.772;2023-02-03T08:47:32;10.50;99.90
19665;DHT22;9980;51.020;7.772;2023-02-03T08:49:58;10.50;99.90
19665;DHT22;9980;51.020;7.772;2023-02-03T08:52:24;10.50;99.90
19665;DHT22;9980;51.020;7.772;2023-02-03T08:54:51;10.50;99.90
19665;DHT22;9980;51.020;7.772;2023-02-03T08:57:18;10.50;99.90
19665;DHT22;9980;51.020;7.772;2023-02-03T08:59:49;10.50;99.90
19665;DHT22;9980;51.020;7.772;2023-02-03T09:02:17;10.50;99.90
19665;DHT22;9980;51.020;7.772;2023-02-03T09:04:45;10.50;99.90
19665;DHT22;9980;51.020;7.772;2023-02-03T09:07:12;10.50;99.90
19665;DHT22;9980;51.020;7.772;2023-02-03T09:09:38;10.50;99.90
19665;DHT22;9980;51.020;7.772;2023-02-03T09:12:06;10.50;99.90
19665;DHT22;9980;51.020;7.772;2023-02-03T09:14:33;10.50;99.90
19665;DHT22;9980;51.020;7.772;2023-02-03T09:17:02;10.50;99.90
19665;DHT22;9980;51.020;7.772;2023-02-03T09:19:30;10.50;99.90
19665;DHT22;9980;51.020;7.772;2023-02-03T09:21:56;10.50;99.90
19665;DHT22;9980;51.020;7.772;2023-02-03T09:24:23;10.50;99.90
19665;DHT22;9980;51.020;7.772;2023-02-03T09:26:50;10.50;99.90
19665;DHT22;9980;51.020;7.772;2023-02-03T09:29:16;10.50;99.90
19665;DHT22;9980;51.020;7.772;2023-02-03T09:31:43;10.50;99.90
19665;DHT22;9980;51.020;7.772;2023-02-03T09:34:11;10.50;99.90
19665;DHT22;9980;51.020;7.772;2023-02-03T09:36:38;10.50;99.90
19665;DHT22;9980;51.020;7.772;2023-02-03T09:39:05;10.50;99.90
19665;DHT22;9980;51.020;7.772;2023-02-03T09:47:36;10.50;99.90
19665;DHT22;9980;51.020;7.772;2023-02-03T09:50:11;10.50;99.90
19665;DHT22;9980;51.020;7.772;2023-02-03T09:52:42;10.50;99.90
19665;DHT22;9980;51.020;7.772;2023-02-03T09:58:17;10.50;99.90
19665;DHT22;9980;51.020;7.772;2023-02-03T10:00:50;10.50;99.90
19665;DHT22;9980;51.020;7.772;2023-02-03T10:03:35;10.50;99.90
19665;DHT22;9980;51.020;7.772;2023-02-03T10:06:36;10.50;99.90
19665;DHT22;9980;51.020;7.772;2023-02-03T10:09:24;10.60;99.90
19665;DHT22;9980;51.020;7.772;2023-02-03T10:12:24;10.50;99.90
19665;DHT22;9980;51.020;7.772;2023-02-03T10:18:14;10.50;99.90
19665;DHT22;9980;51.020;7.772;2023-02-03T10:21:46;10.50;99.90
19665;DHT22;9980;51.020;7.772;2023-02-03T10:24:39;10.60;99.90
19665;DHT22;9980;51.020;7.772;2023-02-03T10:27:17;10.50;99.90
19665;DHT22;9980;51.020;7.772;2023-02-03T10:29:57;10.60;99.90
19665;DHT22;9980;51.020;7.772;2023-02-03T10:32:28;10.60;99.90
19665;DHT22;9980;51.020;7.772;2023-02-03T10:34:55;10.60;99.90
19665;DHT22;9980;51.020;7.772;2023-02-03T10:40:02;10.60;99.90
19665;DHT22;9980;51.020;7.772;2023-02-03T10:42:30;10.60;99.90
19665;DHT22;9980;51.020;7.772;2023-02-03T10:45:19;10.60;99.90
19665;DHT22;9980;51.020;7.772;2023-02-03T10:47:54;10.60;99.90
19665;DHT22;9980;51.020;7.772;2023-02-03T10:50:23;10.60;99.90
19665;DHT22;9980;51.020;7.772;2023-02-03T10:53:21;10.60;99.90
19665;DHT22;9980;51.020;7.772;2023-02-03T10:56:09;10.60;99.90
19665;DHT22;9980;51.020;7.772;2023-02-03T10:58:44;10.70;99.90
19665;DHT22;9980;51.020;7.772;2023-02-03T11:01:16;10.70;99.90
19665;DHT22;9980;51.020;7.772;2023-02-03T11:04:00;10.70;99.90
19665;DHT22;9980;51.020;7.772;2023-02-03T11:06:30;10.70;99.90
19665;DHT22;9980;51.020;7.772;2023-02-03T11:08:59;10.70;99.90
19665;DHT22;9980;51.020;7.772;2023-02-03T11:11:34;10.70;99.90
19665;DHT22;9980;51.020;7.772;2023-02-03T11:16:34;10.70;99.90
19665;DHT22;9980;51.020;7.772;2023-02-03T11:21:46;10.70;99.90
19665;DHT22;9980;51.020;7.772;2023-02-03T11:24:23;10.70;99.90
19665;DHT22;9980;51.020;7.772;2023-02-03T11:29:25;10.70;99.90
19665;DHT22;9980;51.020;7.772;2023-02-03T11:31:58;10.70;99.90
19665;DHT22;9980;51.020;7.772;2023-02-03T11:34:32;10.70;99.90
19665;DHT22;9980;51.020;7.772;2023-02-03T11:37:25;10.70;99.90
19665;DHT22;9980;51.020;7.772;2023-02-03T11:42:35;10.70;99.90
19665;DHT22;9980;51.020;7.772;2023-02-03T12:01:30;10.70;99.90
19665;DHT22;9980;51.020;7.772;2023-02-03T12:07:28;10.80;99.90
19665;DHT22;9980;51.020;7.772;2023-02-03T12:10:33;10.80;99.90
19665;DHT22;9980;51.020;7.772;2023-02-03T12:13:26;10.70;99.90
19665;DHT22;9980;51.020;7.772;2023-02-03T12:16:43;10.80;99.90
19665;DHT22;9980;51.020;7.772;2023-02-03T12:29:06;10.80;99.90
19665;DHT22;9980;51.020;7.772;2023-02-03T12:35:11;10.80;99.90
19665;DHT22;9980;51.020;7.772;2023-02-03T12:40:51;10.80;99.90
19665;DHT22;9980;51.020;7.772;2023-02-03T12:43:34;10.80;99.90
19665;DHT22;9980;51.020;7.772;2023-02-03T12:55:26;10.80;99.90
19665;DHT22;9980;51.020;7.772;2023-02-03T12:58:28;10.80;99.90
19665;DHT22;9980;51.020;7.772;2023-02-03T13:01:23;10.80;99.90
19665;DHT22;9980;51.020;7.772;2023-02-03T13:06:52;10.80;99.90
19665;DHT22;9980;51.020;7.772;2023-02-03T13:12:32;10.90;99.90
19665;DHT22;9980;51.020;7.772;2023-02-03T13:15:26;10.90;99.90
19665;DHT22;9980;51.020;7.772;2023-02-03T13:18:09;10.80;99.90
19665;DHT22;9980;51.020;7.772;2023-02-03T13:20:45;10.90;99.90
19665;DHT22;9980;51.020;7.772;2023-02-03T13:23:13;10.90;99.90
19665;DHT22;9980;51.020;7.772;2023-02-03T13:26:00;10.90;99.90
19665;DHT22;9980;51.020;7.772;2023-02-03T13:32:02;11.00;99.90
19665;DHT22;9980;51.020;7.772;2023-02-03T13:40:36;10.90;99.90
19665;DHT22;9980;51.020;7.772;2023-02-03T13:43:26;10.90;99.90
19665;DHT22;9980;51.020;7.772;2023-02-03T13:46:06;11.00;99.90
19665;DHT22;9980;51.020;7.772;2023-02-03T13:48:44;11.00;99.90
19665;DHT22;9980;51.020;7.772;2023-02-03T13:53:43;11.00;99.90
19665;DHT22;9980;51.020;7.772;2023-02-03T13:56:23;11.00;99.90
19665;DHT22;9980;51.020;7.772;2023-02-03T14:01:45;11.00;99.90
19665;DHT22;9980;51.020;7.772;2023-02-03T14:09:21;11.00;99.90
19665;DHT22;9980;51.020;7.772;2023-02-03T14:12:20;11.00;99.90
19665;DHT22;9980;51.020;7.772;2023-02-03T14:15:01;11.00;99.90
19665;DHT22;9980;51.020;7.772;2023-02-03T14:25:31;11.10;99.90
19665;DHT22;9980;51.020;7.772;2023-02-03T14:28:07;11.10;99.90
19665;DHT22;9980;51.020;7.772;2023-02-03T14:31:40;11.10;99.90
19665;DHT22;9980;51.020;7.772;2023-02-03T14:33:49;11.10;99.90
19665;DHT22;9980;51.020;7.772;2023-02-03T14:36:48;11.10;99.90
19665;DHT22;9980;51.020;7.772;2023-02-03T14:58:49;11.20;99.90
19665;DHT22;9980;51.020;7.772;2023-02-03T15:06:47;11.30;99.90
19665;DHT22;9980;51.020;7.772;2023-02-03T15:09:30;11.30;99.90
19665;DHT22;9980;51.020;7.772;2023-02-03T15:12:18;11.30;99.90
19665;DHT22;9980;51.020;7.772;2023-02-03T15:14:49;11.30;99.90
19665;DHT22;9980;51.020;7.772;2023-02-03T15:17:22;11.30;99.90
19665;DHT22;9980;51.020;7.772;2023-02-03T15:19:51;11.30;99.90
19665;DHT22;9980;51.020;7.772;2023-02-03T15:22:25;11.30;99.90
19665;DHT22;9980;51.020;7.772;2023-02-03T15:24:59;11.30;99.90
19665;DHT22;9980;51.020;7.772;2023-02-03T15:27:31;11.30;99.90
19665;DHT22;9980;51.020;7.772;2023-02-03T15:29:58;11.30;99.90
19665;DHT22;9980;51.020;7.772;2023-02-03T15:32:44;11.30;99.90
19665;DHT22;9980;51.020;7.772;2023-02-03T15:35:18;11.30;99.90
19665;DHT22;9980;51.020;7.772;2023-02-03T15:37:52;11.30;99.90
19665;DHT22;9980;51.020;7.772;2023-02-03T15:40:22;11.30;99.90
19665;DHT22;9980;51.020;7.772;2023-02-03T15:43:01;11.30;99.90
19665;DHT22;9980;51.020;7.772;2023-02-03T15:45:43;11.30;99.90
19665;DHT22;9980;51.020;7.772;2023-02-03T15:48:37;11.20;99.90
19665;DHT22;9980;51.020;7.772;2023-02-03T15:51:25;11.20;99.90
19665;DHT22;9980;51.020;7.772;2023-02-03T15:54:12;11.10;99.90
19665;DHT22;9980;51.020;7.772;2023-02-03T15:57:07;11.00;99.90
19665;DHT22;9980;51.020;7.772;2023-02-03T15:59:57;11.00;99.90
19665;DHT22;9980;51.020;7.772;2023-02-03T16:02:30;10.90;99.90
19665;DHT22;9980;51.020;7.772;2023-02-03T16:08:24;10.80;99.90
19665;DHT22;9980;51.020;7.772;2023-02-03T16:13:56;10.70;99.90
19665;DHT22;9980;51.020;7.772;2023-02-03T16:16:42;10.70;99.90
19665;DHT22;9980;51.020;7.772;2023-02-03T16:19:31;10.60;99.90
19665;DHT22;9980;51.020;7.772;2023-02-03T16:22:02;10.60;99.90
19665;DHT22;9980;51.020;7.772;2023-02-03T16:29:54;10.60;99.90
19665;DHT22;9980;51.020;7.772;2023-02-03T16:33:09;10.50;99.90
19665;DHT22;9980;51.020;7.772;2023-02-03T16:36:08;10.50;99.90
19665;DHT22;9980;51.020;7.772;2023-02-03T16:38:54;10.50;99.90
19665;DHT22;9980;51.020;7.772;2023-02-03T16:41:40;10.40;99.90
19665;DHT22;9980;51.020;7.772;2023-02-03T16:44:24;10.40;99.90
19665;DHT22;9980;51.020;7.772;2023-02-03T16:47:25;10.40;99.90
19665;DHT22;9980;51.020;7.772;2023-02-03T16:50:20;10.40;99.90
19665;DHT22;9980;51.020;7.772;2023-02-03T16:53:13;10.30;99.90
19665;DHT22;9980;51.020;7.772;2023-02-03T16:55:42;10.30;99.90
19665;DHT22;9980;51.020;7.772;2023-02-03T16:58:09;10.30;99.90
19665;DHT22;9980;51.020;7.772;2023-02-03T17:00:41;10.30;99.90
19665;DHT22;9980;51.020;7.772;2023-02-03T17:03:12;10.30;99.90
19665;DHT22;9980;51.020;7.772;2023-02-03T17:05:41;10.20;99.90
19665;DHT22;9980;51.020;7.772;2023-02-03T17:08:08;10.20;99.90
19665;DHT22;9980;51.020;7.772;2023-02-03T17:10:36;10.20;99.90
19665;DHT22;9980;51.020;7.772;2023-02-03T17:13:04;10.20;99.90
19665;DHT22;9980;51.020;7.772;2023-02-03T17:15:31;10.10;99.90
19665;DHT22;9980;51.020;7.772;2023-02-03T17:17:57;10.20;99.90
19665;DHT22;9980;51.020;7.772;2023-02-03T17:20:24;10.10;99.90
19665;DHT22;9980;51.020;7.772;2023-02-03T17:22:51;10.10;99.90
19665;DHT22;9980;51.020;7.772;2023-02-03T17:25:20;10.10;99.90
19665;DHT22;9980;51.020;7.772;2023-02-03T17:27:46;10.10;99.90
19665;DHT22;9980;51.020;7.772;2023-02-03T17:30:13;10.10;99.90
19665;DHT22;9980;51.020;7.772;2023-02-03T17:32:41;10.10;99.90
19665;DHT22;9980;51.020;7.772;2023-02-03T17:35:07;10.10;99.90
19665;DHT22;9980;51.020;7.772;2023-02-03T17:37:35;10.00;99.90
19665;DHT22;9980;51.020;7.772;2023-02-03T17:40:02;10.10;99.90
19665;DHT22;9980;51.020;7.772;2023-02-03T17:42:46;10.00;99.90
19665;DHT22;9980;51.020;7.772;2023-02-03T17:45:31;10.00;99.90
19665;DHT22;9980;51.020;7.772;2023-02-03T17:48:16;10.00;99.90
19665;DHT22;9980;51.020;7.772;2023-02-03T17:54:03;10.00;99.90
19665;DHT22;9980;51.020;7.772;2023-02-03T17:56:32;10.00;99.90
19665;DHT22;9980;51.020;7.772;2023-02-03T17:59:02;10.00;99.90
19665;DHT22;9980;51.020;7.772;2023-02-03T18:01:30;9.90;99.90
19665;DHT22;9980;51.020;7.772;2023-02-03T18:03:59;9.90;99.90
19665;DHT22;9980;51.020;7.772;2023-02-03T18:06:28;9.90;99.90
19665;DHT22;9980;51.020;7.772;2023-02-03T18:08:56;9.90;99.90
19665;DHT22;9980;51.020;7.772;2023-02-03T18:11:29;9.90;99.90
19665;DHT22;9980;51.020;7.772;2023-02-03T18:13:56;10.00;99.90
19665;DHT22;9980;51.020;7.772;2023-02-03T18:16:26;9.90;99.90
19665;DHT22;9980;51.020;7.772;2023-02-03T18:18:58;9.90;99.90
19665;DHT22;9980;51.020;7.772;2023-02-03T18:21:26;9.90;99.90
19665;DHT22;9980;51.020;7.772;2023-02-03T18:23:53;9.90;99.90
19665;DHT22;9980;51.020;7.772;2023-02-03T18:26:25;9.90;99.90
19665;DHT22;9980;51.020;7.772;2023-02-03T18:28:54;10.00;99.90
19665;DHT22;9980;51.020;7.772;2023-02-03T18:31:21;9.90;99.90
19665;DHT22;9980;51.020;7.772;2023-02-03T18:33:47;9.90;99.90
19665;DHT22;9980;51.020;7.772;2023-02-03T18:36:14;9.90;99.90
19665;DHT22;9980;51.020;7.772;2023-02-03T18:38:43;9.90;99.90
19665;DHT22;9980;51.020;7.772;2023-02-03T18:41:17;10.00;99.90
19665;DHT22;9980;51.020;7.772;2023-02-03T18:43:46;10.00;99.90
19665;DHT22;9980;51.020;7.772;2023-02-03T18:46:26;10.00;99.90
19665;DHT22;9980;51.020;7.772;2023-02-03T18:48:54;10.00;99.90
19665;DHT22;9980;51.020;7.772;2023-02-03T18:51:22;10.00;99.90
19665;DHT22;9980;51.020;7.772;2023-02-03T18:53:49;10.00;99.90
19665;DHT22;9980;51.020;7.772;2023-02-03T18:56:22;10.00;99.90
19665;DHT22;9980;51.020;7.772;2023-02-03T18:58:50;10.00;99.90
19665;DHT22;9980;51.020;7.772;2023-02-03T19:01:25;10.00;99.90
19665;DHT22;9980;51.020;7.772;2023-02-03T19:03:58;10.00;99.90
19665;DHT22;9980;51.020;7.772;2023-02-03T19:06:27;10.00;99.90
19665;DHT22;9980;51.020;7.772;2023-02-03T19:08:56;10.00;99.90
19665;DHT22;9980;51.020;7.772;2023-02-03T19:11:24;10.00;99.90